Time;durP1;ratioP1;P1;durP2;ratioP2;P2;SDS_P1;SDS_P2;PMS_P1;PMS_P2;Temp;Humidity;BMP_temperature;BMP_pressure;BME280_temperature;BME280_humidity;BME280_pressure;Samples;Min_cycle;Max_cycle;Signal;HPM_P1;HPM_P2
2023/09/17 00:01:31;;;;;;;15.85;14.35;;;;;;;18.75;100.00;101089.84;5018876;28;20041;-69
2023/09/17 00:03:58;;;;;;;16.05;14.35;;;;;;;18.73;100.00;101096.34;5020402;28;20037;-68
2023/09/17 00:06:24;;;;;;;15.85;14.25;;;;;;;18.66;100.00;101107.59;5020240;28;20456;-68
2023/09/17 00:08:49;;;;;;;16.77;15.18;;;;;;;18.61;100.00;101098.19;5002065;28;20036;-69
2023/09/17 00:11:15;;;;;;;16.45;14.95;;;;;;;18.60;100.00;101108.13;5018852;28;20466;-69
2023/09/17 00:13:41;;;;;;;16.38;14.85;;;;;;;18.57;100.00;101105.66;5021000;28;20041;-69
2023/09/17 00:16:07;;;;;;;17.02;15.43;;;;;;;18.51;100.00;101116.06;5021360;28;20478;-69
2023/09/17 00:18:32;;;;;;;16.48;14.88;;;;;;;18.51;100.00;101122.31;5019367;28;20029;-68
2023/09/17 00:20:58;;;;;;;16.17;14.75;;;;;;;18.53;100.00;101120.38;5020428;28;20026;-68
2023/09/17 00:23:23;;;;;;;17.08;15.48;;;;;;;18.50;100.00;101122.44;5022558;28;20225;-68
2023/09/17 00:25:49;;;;;;;17.98;16.23;;;;;;;18.39;100.00;101125.97;5023545;28;20030;-68
2023/09/17 00:28:14;;;;;;;18.25;16.35;;;;;;;18.16;100.00;101142.13;5004751;28;20124;-69
2023/09/17 00:30:39;;;;;;;25.52;22.42;;;;;;;17.91;100.00;101135.09;5017226;28;20112;-71
2023/09/17 00:33:05;;;;;;;33.10;23.05;;;;;;;17.61;100.00;101118.56;5017659;28;20029;-68
2023/09/17 00:35:30;;;;;;;32.78;25.10;;;;;;;17.46;100.00;101122.41;5016998;28;20104;-69
2023/09/17 00:37:56;;;;;;;30.77;25.60;;;;;;;17.31;100.00;101127.97;5018525;28;20045;-68
2023/09/17 00:40:24;;;;;;;31.50;27.42;;;;;;;17.25;100.00;101122.19;5017741;28;20029;-68
2023/09/17 00:42:50;;;;;;;32.67;27.75;;;;;;;17.26;100.00;101122.06;5017009;28;20021;-68
2023/09/17 00:45:16;;;;;;;32.50;26.30;;;;;;;17.10;100.00;101124.19;5018093;28;20029;-68
2023/09/17 00:47:41;;;;;;;28.42;24.70;;;;;;;17.01;100.00;101120.31;5019445;28;20026;-69
2023/09/17 00:50:11;;;;;;;34.72;29.02;;;;;;;16.88;100.00;101104.22;5019448;28;20035;-68
2023/09/17 00:52:38;;;;;;;32.67;28.27;;;;;;;16.92;100.00;101094.13;5019308;28;20029;-67
2023/09/17 00:55:05;;;;;;;31.83;27.88;;;;;;;16.80;100.00;101103.06;5004465;28;20490;-67
2023/09/17 00:57:31;;;;;;;32.20;27.70;;;;;;;16.68;100.00;101107.50;4993229;28;20025;-67
2023/09/17 00:59:57;;;;;;;30.52;27.00;;;;;;;16.70;100.00;101094.81;5018440;28;20071;-67
2023/09/17 01:02:24;;;;;;;31.80;27.80;;;;;;;16.61;100.00;101101.69;4998606;28;20124;-67
2023/09/17 01:04:52;;;;;;;34.88;28.90;;;;;;;16.58;100.00;101096.53;4999887;28;20047;-68
2023/09/17 01:07:18;;;;;;;34.30;29.33;;;;;;;16.63;100.00;101096.22;5019028;28;20104;-68
2023/09/17 01:09:44;;;;;;;33.05;29.20;;;;;;;16.56;100.00;101093.13;5015742;28;20041;-68
2023/09/17 01:12:10;;;;;;;32.85;29.33;;;;;;;16.55;100.00;101085.16;5018060;28;20021;-69
2023/09/17 01:14:37;;;;;;;31.90;28.02;;;;;;;16.44;100.00;101088.63;5019024;28;20021;-68
2023/09/17 01:17:06;;;;;;;30.50;27.25;;;;;;;16.42;100.00;101086.03;5016294;28;20071;-68
2023/09/17 01:19:33;;;;;;;30.52;27.33;;;;;;;16.38;100.00;101080.97;5017081;28;20036;-68
2023/09/17 01:22:01;;;;;;;31.30;27.90;;;;;;;16.31;100.00;101085.94;5014967;28;20529;-69
2023/09/17 01:24:49;;;;;;;31.17;27.98;;;;;;;16.33;100.00;101084.00;5018399;28;20444;-69
2023/09/17 01:27:15;;;;;;;32.17;28.70;;;;;;;16.31;100.00;101077.91;5019581;28;20036;-69
2023/09/17 01:29:43;;;;;;;32.17;28.77;;;;;;;16.30;100.00;101084.25;5013466;28;20021;-69
2023/09/17 01:32:13;;;;;;;29.75;26.55;;;;;;;16.16;100.00;101076.28;5015443;28;20048;-67
2023/09/17 01:34:43;;;;;;;32.72;27.83;;;;;;;16.13;100.00;101063.06;5016532;28;20037;-67
2023/09/17 01:37:27;;;;;;;30.92;27.83;;;;;;;16.13;100.00;101065.75;5017518;28;20045;-67
2023/09/17 01:39:54;;;;;;;;;;;;;;;16.16;100.00;101068.22;5015959;28;20025;-67
2023/09/17 01:42:22;;;;;;;27.27;24.52;;;;;;;16.03;100.00;101062.00;5018197;28;20289;-66
2023/09/17 01:44:49;;;;;;;27.75;24.85;;;;;;;15.93;100.00;101068.03;5018284;28;20483;-67
2023/09/17 01:47:16;;;;;;;32.30;26.42;;;;;;;15.91;100.00;101061.91;5015540;28;20033;-66
2023/09/17 01:49:42;;;;;;;28.55;25.60;;;;;;;15.93;100.00;101056.44;5015354;28;20400;-67
2023/09/17 01:52:09;;;;;;;29.05;26.05;;;;;;;15.85;100.00;101038.19;5018015;28;20143;-67
2023/09/17 01:54:35;;;;;;;27.60;24.70;;;;;;;15.84;100.00;101041.84;5019509;28;20140;-67
2023/09/17 01:57:01;;;;;;;24.08;21.67;;;;;;;15.84;100.00;101039.16;5019720;28;20111;-67
2023/09/17 01:59:26;;;;;;;25.13;22.52;;;;;;;15.96;100.00;101041.91;5020180;28;20029;-67
2023/09/17 02:01:51;;;;;;;24.98;22.40;;;;;;;16.04;100.00;101048.47;5016775;28;20039;-67
2023/09/17 02:04:17;;;;;;;25.35;22.70;;;;;;;16.08;100.00;101046.44;5017421;28;20026;-67
2023/09/17 02:06:42;;;;;;;26.50;23.77;;;;;;;16.07;100.00;101042.03;5017394;28;20025;-67
2023/09/17 02:09:08;;;;;;;27.10;24.25;;;;;;;16.01;100.00;101040.66;5016181;28;20033;-66
2023/09/17 02:11:35;;;;;;;27.52;24.73;;;;;;;15.98;100.00;101046.22;5013250;28;20113;-68
2023/09/17 02:14:00;;;;;;;27.15;24.45;;;;;;;15.99;100.00;101041.72;5020531;28;20546;-68
2023/09/17 02:16:26;;;;;;;27.85;24.85;;;;;;;15.95;100.00;101038.38;5016094;28;20087;-68
2023/09/17 02:18:51;;;;;;;26.98;24.30;;;;;;;15.96;100.00;101036.56;4998493;28;20063;-67
2023/09/17 02:21:17;;;;;;;27.70;24.80;;;;;;;16.02;100.00;101042.38;5017519;28;20048;-68
2023/09/17 02:23:44;;;;;;;27.98;25.08;;;;;;;15.96;100.00;101041.91;5015860;28;20053;-67
2023/09/17 02:26:09;;;;;;;29.15;26.08;;;;;;;15.91;100.00;101037.72;5016992;28;20026;-68
2023/09/17 02:28:35;;;;;;;29.25;25.58;;;;;;;15.91;100.00;101037.72;5020965;28;20060;-67
2023/09/17 02:31:02;;;;;;;29.95;26.75;;;;;;;15.81;100.00;101025.09;5018006;28;20084;-68
2023/09/17 02:33:27;;;;;;;31.52;27.08;;;;;;;15.76;100.00;101021.84;5017300;28;20331;-67
2023/09/17 02:35:53;;;;;;;31.15;27.63;;;;;;;15.69;100.00;101016.91;5018592;28;20240;-68
2023/09/17 02:38:19;;;;;;;30.67;26.92;;;;;;;15.57;100.00;101014.19;4998704;28;20044;-69
2023/09/17 02:40:44;;;;;;;32.20;27.75;;;;;;;15.52;100.00;101016.34;5013861;28;20460;-67
2023/09/17 02:43:09;;;;;;;34.22;28.90;;;;;;;15.35;100.00;100998.72;5016131;28;20029;-68
2023/09/17 02:45:35;;;;;;;30.85;27.52;;;;;;;15.44;100.00;101006.13;5018717;28;20030;-68
2023/09/17 02:48:01;;;;;;;35.83;29.65;;;;;;;15.33;100.00;101001.47;5018017;28;20060;-71
2023/09/17 02:50:27;;;;;;;33.45;28.85;;;;;;;15.27;100.00;101006.44;5015525;28;20065;-68
2023/09/17 02:52:52;;;;;;;34.97;30.17;;;;;;;15.25;100.00;101001.16;5018281;28;20120;-68
2023/09/17 02:55:18;;;;;;;37.95;32.47;;;;;;;15.26;100.00;101013.63;5017285;28;20052;-68
2023/09/17 02:57:43;;;;;;;41.92;33.05;;;;;;;15.27;100.00;101001.91;5018973;28;20036;-68
2023/09/17 03:00:10;;;;;;;39.50;32.42;;;;;;;15.22;100.00;101005.88;5019907;28;20041;-68
2023/09/17 03:02:36;;;;;;;40.92;33.67;;;;;;;15.27;100.00;101006.44;5016513;28;20120;-69
2023/09/17 03:05:02;;;;;;;39.42;33.13;;;;;;;15.22;100.00;101001.38;5016188;28;20160;-68
2023/09/17 03:07:28;;;;;;;42.55;34.80;;;;;;;15.24;100.00;101004.78;5015798;28;20098;-68
2023/09/17 03:09:53;;;;;;;45.47;35.75;;;;;;;15.20;100.00;100995.25;5019421;28;20359;-69
2023/09/17 03:12:19;;;;;;;45.15;35.38;;;;;;;15.14;100.00;100993.00;5006010;28;20036;-68
2023/09/17 03:14:44;;;;;;;42.92;34.88;;;;;;;15.16;100.00;100999.94;5021487;28;20033;-67
2023/09/17 03:17:10;;;;;;;48.10;36.45;;;;;;;15.09;100.00;101000.47;5019938;28;20022;-67
2023/09/17 03:19:35;;;;;;;42.17;35.50;;;;;;;15.11;100.00;101003.91;5010559;28;20203;-67
2023/09/17 03:22:02;;;;;;;43.78;35.92;;;;;;;15.05;100.00;101004.31;5021196;28;20479;-68
2023/09/17 03:24:28;;;;;;;48.83;37.95;;;;;;;15.13;100.00;101007.34;5019836;28;20079;-67
2023/09/17 03:26:53;;;;;;;47.70;38.33;;;;;;;15.19;100.00;101002.44;5022523;28;20049;-66
2023/09/17 03:29:18;;;;;;;50.40;39.47;;;;;;;15.23;100.00;101000.41;5024261;28;20039;-66
2023/09/17 03:31:45;;;;;;;45.05;38.25;;;;;;;15.16;100.00;101002.63;5023248;28;20021;-66
2023/09/17 03:34:11;;;;;;;48.15;38.58;;;;;;;15.23;100.00;100996.88;5019672;28;20430;-67
2023/09/17 03:36:37;;;;;;;48.80;39.40;;;;;;;15.17;100.00;100990.97;5017794;28;20079;-66
2023/09/17 03:39:05;;;;;;;45.85;38.78;;;;;;;15.15;100.00;100994.69;5019972;28;20025;-67
2023/09/17 03:41:31;;;;;;;48.47;39.22;;;;;;;15.12;100.00;101001.13;5018711;28;20725;-67
2023/09/17 03:43:56;;;;;;;47.40;39.78;;;;;;;15.17;100.00;100985.59;5002177;28;20029;-67
2023/09/17 03:46:22;;;;;;;52.35;40.42;;;;;;;15.13;100.00;100988.56;5020660;28;20414;-68
2023/09/17 03:48:47;;;;;;;51.70;40.60;;;;;;;15.12;100.00;100994.91;5019667;28;20032;-66
2023/09/17 03:51:13;;;;;;;44.95;39.13;;;;;;;15.25;100.00;101000.28;5020000;28;20037;-67
2023/09/17 03:53:38;;;;;;;52.92;41.20;;;;;;;15.23;100.00;101000.41;5018696;28;20357;-67
2023/09/17 03:56:04;;;;;;;53.97;40.30;;;;;;;15.21;100.00;100991.59;5017887;28;20462;-68
2023/09/17 03:58:30;;;;;;;47.47;40.05;;;;;;;15.18;100.00;100989.13;5021738;28;20106;-67
2023/09/17 04:00:55;;;;;;;49.35;41.22;;;;;;;15.28;100.00;100994.72;5021932;28;20112;-66
2023/09/17 04:03:21;;;;;;;52.72;41.88;;;;;;;15.29;100.00;100991.94;5022145;28;20037;-66
2023/09/17 04:05:50;;;;;;;50.83;41.38;;;;;;;15.35;100.00;100998.72;5018430;28;20030;-67
2023/09/17 04:08:15;;;;;;;56.67;42.33;;;;;;;15.33;100.00;100988.06;5017488;28;20053;-67
2023/09/17 04:10:40;;;;;;;48.78;40.85;;;;;;;15.42;100.00;100989.25;5019145;28;20067;-67
2023/09/17 04:13:06;;;;;;;50.50;42.58;;;;;;;15.44;100.00;100990.03;5018494;28;20017;-66
2023/09/17 04:15:32;;;;;;;54.03;44.08;;;;;;;15.50;100.00;100989.59;5018317;28;20069;-65
2023/09/17 04:17:57;;;;;;;50.55;42.42;;;;;;;15.51;100.00;100985.09;5019935;28;20025;-68
2023/09/17 04:20:27;;;;;;;52.58;43.05;;;;;;;15.53;100.00;100989.38;5018649;28;20041;-66
2023/09/17 04:22:52;;;;;;;58.20;43.88;;;;;;;15.48;100.00;100982.63;5020727;28;21395;-68
2023/09/17 04:25:19;;;;;;;49.70;41.70;;;;;;;15.52;100.00;100984.16;5016252;28;20041;-68
2023/09/17 04:27:46;;;;;;;52.92;41.35;;;;;;;15.39;100.00;100979.63;5014806;28;20108;-68
2023/09/17 04:30:13;;;;;;;50.70;41.28;;;;;;;15.42;100.00;100983.91;5020379;28;20029;-67
2023/09/17 04:32:43;;;;;;;52.28;42.63;;;;;;;15.49;100.00;100984.34;5020648;28;20442;-68
2023/09/17 04:35:10;;;;;;;47.60;41.22;;;;;;;15.41;100.00;100985.72;5018029;28;20037;-66
2023/09/17 04:37:37;;;;;;;48.17;41.67;;;;;;;15.51;100.00;100987.75;5019899;28;20032;-66
2023/09/17 04:40:11;;;;;;;52.35;42.88;;;;;;;15.50;100.00;100983.38;5018628;28;20112;-66
2023/09/17 04:42:43;;;;;;;52.38;42.35;;;;;;;15.45;100.00;100979.19;5016185;28;20554;-66
2023/09/17 04:45:09;;;;;;;51.35;41.65;;;;;;;15.43;100.00;100980.28;5018328;28;20030;-67
2023/09/17 04:47:36;;;;;;;49.38;41.65;;;;;;;15.42;100.00;100982.09;5018815;28;20208;-68
2023/09/17 04:50:02;;;;;;;48.78;41.78;;;;;;;15.50;100.00;100983.38;5019150;28;20041;-67
2023/09/17 04:52:28;;;;;;;51.95;42.55;;;;;;;15.55;100.00;100975.84;5016349;28;20365;-67
2023/09/17 04:54:53;;;;;;;54.20;44.70;;;;;;;15.62;100.00;100972.66;5015901;28;20075;-68
2023/09/17 04:57:19;;;;;;;51.38;43.00;;;;;;;15.60;100.00;100968.38;5018693;28;20064;-67
2023/09/17 04:59:46;;;;;;;55.13;43.72;;;;;;;15.58;100.00;100976.50;5022935;28;20036;-67
2023/09/17 05:02:12;;;;;;;51.65;44.90;;;;;;;15.52;100.00;100968.91;5022652;28;20038;-68
2023/09/17 05:04:38;;;;;;;56.90;45.28;;;;;;;15.51;100.00;100977.03;5019899;28;20091;-67
2023/09/17 05:07:03;;;;;;;51.90;43.75;;;;;;;15.55;100.00;100971.38;5017672;28;20029;-67
2023/09/17 05:09:28;;;;;;;55.38;46.30;;;;;;;15.65;100.00;100979.66;5017638;28;20085;-67
2023/09/17 05:11:54;;;;;;;53.70;45.55;;;;;;;15.62;100.00;100983.38;5018079;28;20095;-67
2023/09/17 05:14:19;;;;;;;53.70;45.95;;;;;;;15.73;100.00;100984.50;5017282;28;20028;-68
2023/09/17 05:16:44;;;;;;;57.28;47.53;;;;;;;15.62;100.00;100975.31;5018307;28;20039;-67
2023/09/17 05:19:13;;;;;;;61.13;46.72;;;;;;;15.68;100.00;100984.84;5018051;28;20057;-67
2023/09/17 05:21:39;;;;;;;54.95;46.47;;;;;;;15.75;100.00;100987.91;5017446;28;20377;-67
2023/09/17 05:24:05;;;;;;;53.80;47.03;;;;;;;15.83;100.00;100985.56;5019401;28;20096;-67
2023/09/17 05:26:31;;;;;;;53.72;46.15;;;;;;;15.88;100.00;100992.34;5018239;28;20240;-67
2023/09/17 05:28:56;;;;;;;60.33;48.20;;;;;;;15.86;100.00;100991.56;5019199;28;20029;-66
2023/09/17 05:31:22;;;;;;;57.60;45.88;;;;;;;15.83;100.00;100990.94;5020954;28;20041;-68
2023/09/17 05:33:47;;;;;;;53.85;45.90;;;;;;;15.96;100.00;100994.44;5018681;28;20029;-67
2023/09/17 05:36:12;;;;;;;54.78;46.88;;;;;;;16.02;100.00;100993.19;5018142;28;20029;-67
2023/09/17 05:38:38;;;;;;;57.35;46.38;;;;;;;16.03;100.00;100994.88;5017062;28;20029;-66
2023/09/17 05:41:03;;;;;;;52.97;47.10;;;;;;;16.04;100.00;101001.97;4999098;28;20095;-65
2023/09/17 05:43:29;;;;;;;58.40;47.42;;;;;;;16.09;100.00;100994.44;5014994;28;20099;-66
2023/09/17 05:45:56;;;;;;;60.00;49.33;;;;;;;16.07;100.00;100994.56;5017536;28;20490;-67
2023/09/17 05:48:25;;;;;;;60.85;48.08;;;;;;;16.03;100.00;100998.44;5016120;28;20084;-66
2023/09/17 05:50:52;;;;;;;59.10;48.70;;;;;;;16.05;100.00;100993.81;5017716;28;20047;-67
2023/09/17 05:53:18;;;;;;;63.15;48.80;;;;;;;16.02;100.00;101001.22;5018199;28;20063;-67
2023/09/17 05:55:43;;;;;;;67.57;50.45;;;;;;;16.03;100.00;100987.69;5016661;28;20491;-67
2023/09/17 05:58:09;;;;;;;62.13;51.10;;;;;;;16.05;100.00;100984.88;5018175;28;20037;-67
2023/09/17 06:00:34;;;;;;;66.25;50.25;;;;;;;16.12;100.00;100995.09;5019452;28;20025;-66
2023/09/17 06:03:00;;;;;;;71.30;54.05;;;;;;;16.15;100.00;100986.81;5020794;28;20202;-67
2023/09/17 06:05:25;;;;;;;74.47;57.35;;;;;;;16.22;100.00;100991.72;5017079;28;20029;-67
2023/09/17 06:07:51;;;;;;;75.25;60.13;;;;;;;16.27;100.00;100993.13;5017688;28;20044;-66
2023/09/17 06:10:16;;;;;;;73.03;59.97;;;;;;;16.30;100.00;100986.66;4988740;28;20029;-67
2023/09/17 06:12:42;;;;;;;75.55;59.17;;;;;;;16.37;100.00;100999.53;4997746;28;20099;-68
2023/09/17 06:15:08;;;;;;;73.40;59.38;;;;;;;16.43;100.00;101001.81;5017738;28;20060;-67
2023/09/17 06:17:33;;;;;;;75.90;59.45;;;;;;;16.44;100.00;101003.50;5016296;28;20037;-67
2023/09/17 06:19:59;;;;;;;72.13;58.53;;;;;;;16.47;100.00;101001.56;5017988;28;20108;-67
2023/09/17 06:22:25;;;;;;;72.22;57.92;;;;;;;16.48;100.00;100998.78;5018327;28;20063;-66
2023/09/17 06:24:51;;;;;;;68.65;56.13;;;;;;;16.50;100.00;100991.44;5017585;28;20050;-66
2023/09/17 06:27:16;;;;;;;71.03;57.03;;;;;;;16.52;100.00;100999.41;5014549;28;20396;-66
2023/09/17 06:29:41;;;;;;;71.40;56.78;;;;;;;16.55;100.00;100994.66;5020817;28;20025;-66
2023/09/17 06:32:08;;;;;;;68.40;55.50;;;;;;;16.59;100.00;101000.66;5019112;28;20120;-66
2023/09/17 06:34:34;;;;;;;70.55;56.00;;;;;;;16.57;100.00;101005.31;5014176;28;20156;-67
2023/09/17 06:37:01;;;;;;;65.72;54.45;;;;;;;16.62;100.00;101001.28;5016926;28;20025;-66
2023/09/17 06:39:26;;;;;;;68.80;57.35;;;;;;;16.62;100.00;101001.28;5013080;28;20031;-67
2023/09/17 06:41:51;;;;;;;66.30;55.72;;;;;;;16.71;100.00;101005.13;4997081;28;20026;-68
2023/09/17 06:44:18;;;;;;;68.63;55.30;;;;;;;16.68;100.00;101000.84;5014904;28;20761;-68
2023/09/17 06:46:43;;;;;;;67.57;55.38;;;;;;;16.69;100.00;100999.03;5016974;28;20026;-68
2023/09/17 06:49:09;;;;;;;63.05;52.80;;;;;;;16.69;100.00;101005.25;5016533;28;20084;-68
2023/09/17 06:51:35;;;;;;;67.30;53.22;;;;;;;16.72;100.00;100992.53;5018312;28;20112;-67
2023/09/17 06:54:00;;;;;;;64.63;54.45;;;;;;;16.81;100.00;100998.16;5017294;28;20491;-67
2023/09/17 06:56:25;;;;;;;65.55;53.28;;;;;;;16.79;100.00;100999.22;5020543;28;20112;-66
2023/09/17 06:58:51;;;;;;;63.70;53.05;;;;;;;16.82;100.00;100994.47;5017098;28;20108;-67
2023/09/17 07:01:17;;;;;;;71.20;54.83;;;;;;;16.83;100.00;101006.94;5018423;28;20165;-67
2023/09/17 07:03:43;;;;;;;71.28;58.35;;;;;;;16.82;100.00;100999.84;5016551;28;20256;-67
2023/09/17 07:06:08;;;;;;;70.40;56.75;;;;;;;16.85;100.00;100994.25;5018970;28;20032;-67
2023/09/17 07:08:33;;;;;;;75.82;56.80;;;;;;;16.81;100.00;101000.84;5017858;28;20108;-66
2023/09/17 07:11:00;;;;;;;71.03;57.78;;;;;;;16.89;100.00;101003.81;5020802;28;20049;-66
2023/09/17 07:13:25;;;;;;;77.88;57.50;;;;;;;16.92;100.00;100994.63;5018849;28;20019;-66
2023/09/17 07:15:51;;;;;;;78.28;61.15;;;;;;;16.94;100.00;100995.41;5019395;28;20035;-67
2023/09/17 07:18:16;;;;;;;78.38;61.10;;;;;;;16.98;100.00;100994.19;5002633;28;20487;-67
2023/09/17 07:20:41;;;;;;;83.10;61.63;;;;;;;17.01;100.00;100993.09;5019907;28;20033;-68
2023/09/17 07:23:08;;;;;;;79.22;63.60;;;;;;;17.09;100.00;100991.53;5015040;28;20353;-67
2023/09/17 07:25:33;;;;;;;82.30;65.32;;;;;;;17.16;100.00;100986.56;5015013;28;20112;-68
2023/09/17 07:28:04;;;;;;;88.82;68.13;;;;;;;17.22;100.00;100985.22;5017260;28;20116;-66
2023/09/17 07:30:33;;;;;;;87.88;68.03;;;;;;;17.26;100.00;100986.69;5018194;28;20635;-66
2023/09/17 07:32:59;;;;;;;98.47;71.32;;;;;;;17.27;100.00;100983.91;5019599;28;20025;-65
2023/09/17 07:35:24;;;;;;;104.25;74.60;;;;;;;17.29;100.00;100981.09;5017303;28;20009;-67
2023/09/17 07:37:49;;;;;;;114.03;75.63;;;;;;;17.26;100.00;100982.19;5019350;28;20463;-67
2023/09/17 07:40:15;;;;;;;99.43;75.22;;;;;;;17.33;100.00;100982.56;5017762;28;20017;-67
2023/09/17 07:42:40;;;;;;;107.00;77.57;;;;;;;17.33;100.00;100979.88;5018281;28;20084;-68
2023/09/17 07:45:07;;;;;;;108.30;79.15;;;;;;;17.36;100.00;100985.88;5014003;28;20136;-68
2023/09/17 07:47:33;;;;;;;107.05;78.55;;;;;;;17.40;100.00;100990.06;5018790;28;20044;-67
2023/09/17 07:49:58;;;;;;;111.43;81.75;;;;;;;17.48;100.00;100981.41;5020399;28;20026;-68
2023/09/17 07:52:24;;;;;;;107.93;80.10;;;;;;;17.58;100.00;100984.22;5019245;28;20651;-68
2023/09/17 07:54:49;;;;;;;108.30;81.70;;;;;;;17.68;100.00;100985.19;5019282;28;20566;-67
2023/09/17 07:57:14;;;;;;;112.47;80.85;;;;;;;17.72;100.00;100991.22;5020640;28;20026;-67
2023/09/17 07:59:40;;;;;;;104.32;76.95;;;;;;;17.86;100.00;100996.41;5021813;28;20021;-67
2023/09/17 08:02:06;;;;;;;102.47;78.75;;;;;;;17.87;100.00;101000.81;5017705;28;20490;-67
2023/09/17 08:04:32;;;;;;;103.85;76.97;;;;;;;17.92;100.00;101001.31;5022547;28;20484;-67
2023/09/17 08:06:58;;;;;;;100.88;78.45;;;;;;;17.98;100.00;101008.06;5022475;28;20025;-67
2023/09/17 08:09:23;;;;;;;98.82;77.70;;;;;;;17.99;100.00;101015.16;5020877;28;20021;-67
2023/09/17 08:11:49;;;;;;;95.47;75.85;;;;;;;18.02;100.00;101017.59;5018256;28;20033;-69
2023/09/17 08:14:14;;;;;;;99.90;77.07;;;;;;;18.07;100.00;101018.09;5022595;28;20048;-66
2023/09/17 08:16:40;;;;;;;85.82;67.25;;;;;;;18.13;100.00;101012.19;5023710;28;20037;-67
2023/09/17 08:19:06;;;;;;;79.03;63.83;;;;;;;18.15;100.00;101016.50;5020559;28;20076;-68
2023/09/17 08:21:32;;;;;;;71.68;58.25;;;;;;;18.17;100.00;101021.75;5020810;28;20044;-67
2023/09/17 08:23:58;;;;;;;69.72;55.75;;;;;;;18.19;100.00;101017.13;5015276;28;20056;-66
2023/09/17 08:26:27;;;;;;;69.75;56.65;;;;;;;18.21;100.00;101019.69;5018109;28;20076;-66
2023/09/17 08:28:55;;;;;;;60.35;50.55;;;;;;;18.11;100.00;101014.19;5021185;28;20040;-67
2023/09/17 08:31:22;;;;;;;53.92;46.05;;;;;;;18.06;100.00;101011.84;5022251;28;20562;-67
2023/09/17 08:33:48;;;;;;;56.53;48.10;;;;;;;18.19;100.00;101016.25;5023199;28;20039;-66
2023/09/17 08:36:14;;;;;;;61.28;49.85;;;;;;;18.24;100.00;101019.44;5020427;28;20026;-67
2023/09/17 08:38:40;;;;;;;62.42;50.53;;;;;;;18.40;100.00;101014.53;5023416;28;20032;-67
2023/09/17 08:41:06;;;;;;;51.22;44.55;;;;;;;18.38;100.00;101011.09;5022688;28;20629;-66
2023/09/17 08:43:33;;;;;;;51.67;45.15;;;;;;;18.35;100.00;101012.22;5021055;28;20033;-67
2023/09/17 08:46:00;;;;;;;52.20;44.55;;;;;;;18.48;100.00;101019.31;5022809;28;20101;-67
2023/09/17 08:48:26;;;;;;;47.60;41.92;;;;;;;18.50;100.00;101017.31;5021430;28;20017;-67
2023/09/17 08:50:53;;;;;;;48.78;41.72;;;;;;;18.51;100.00;101027.97;5022396;28;20360;-67
2023/09/17 08:53:33;;;;;;;43.97;38.50;;;;;;;18.44;100.00;101026.78;5022397;28;20021;-68
2023/09/17 08:55:59;;;;;;;45.22;40.25;;;;;;;18.50;100.00;101031.66;5021487;28;20191;-68
2023/09/17 08:58:35;;;;;;;45.25;40.38;;;;;;;18.54;100.00;101040.34;5022040;28;20087;-68
2023/09/17 09:01:03;;;;;;;44.50;39.67;;;;;;;18.54;100.00;101040.34;5021279;28;20612;-68
2023/09/17 09:03:33;;;;;;;44.45;39.65;;;;;;;18.53;100.00;101041.34;5022317;28;20148;-68
2023/09/17 09:06:00;;;;;;;41.92;37.28;;;;;;;18.49;100.00;101043.41;5018888;28;20032;-68
2023/09/17 09:08:26;;;;;;;42.97;37.53;;;;;;;18.38;100.00;101033.50;5023336;28;20032;-68
2023/09/17 09:10:51;;;;;;;44.20;39.17;;;;;;;18.44;100.00;101042.09;5018941;28;20106;-68
2023/09/17 09:13:18;;;;;;;41.63;37.10;;;;;;;18.44;100.00;101045.63;5018696;28;20130;-67
2023/09/17 09:15:45;;;;;;;45.85;38.35;;;;;;;18.55;100.00;101052.84;5021759;28;20025;-68
2023/09/17 09:18:11;;;;;;;47.25;40.13;;;;;;;18.53;100.00;101044.88;5022698;28;20029;-68
2023/09/17 09:20:38;;;;;;;45.67;39.15;;;;;;;18.60;100.00;101048.81;5022425;28;20028;-68
2023/09/17 09:23:05;;;;;;;41.97;37.20;;;;;;;18.60;100.00;101051.50;5004125;28;20502;-68
2023/09/17 09:25:31;;;;;;;41.97;37.45;;;;;;;18.50;100.00;101042.44;5015969;28;20044;-70
2023/09/17 09:28:03;;;;;;;42.25;36.40;;;;;;;18.40;100.00;101039.63;5017420;28;20037;-68
2023/09/17 09:30:28;;;;;;;40.90;35.17;;;;;;;18.31;100.00;101045.78;5021042;28;20029;-69
2023/09/17 09:32:54;;;;;;;41.17;34.70;;;;;;;18.25;100.00;101046.25;5021909;28;20035;-68
2023/09/17 09:35:21;;;;;;;43.08;36.50;;;;;;;18.24;100.00;101043.69;5018379;28;20123;-68
2023/09/17 09:37:48;;;;;;;41.22;36.10;;;;;;;18.21;100.00;101041.22;5018081;28;20048;-67
2023/09/17 09:40:14;;;;;;;39.08;33.83;;;;;;;18.13;100.00;101033.75;5000124;28;20057;-68
2023/09/17 09:42:42;;;;;;;49.50;40.78;;;;;;;18.11;100.00;101036.56;5019162;28;20291;-68
2023/09/17 09:45:12;;;;;;;63.03;45.85;;;;;;;18.02;100.00;101041.84;5021416;28;20025;-67
2023/09/17 09:47:38;;;;;;;61.90;47.63;;;;;;;18.01;100.00;101029.34;5020856;28;20026;-67
2023/09/17 09:50:04;;;;;;;66.18;50.30;;;;;;;18.10;100.00;101033.97;5012309;28;20072;-67
2023/09/17 09:52:29;;;;;;;73.63;52.20;;;;;;;18.25;100.00;101046.25;5018214;28;20029;-68
2023/09/17 09:54:54;;;;;;;84.50;59.05;;;;;;;19.03;100.00;101029.13;5001860;28;20484;-68
2023/09/17 09:57:20;;;;;;;80.13;58.53;;;;;;;20.79;100.00;101035.41;5019877;28;20124;-66
2023/09/17 09:59:47;;;;;;;49.88;43.20;;;;;;;21.36;100.00;101036.50;5015517;28;20079;-67
2023/09/17 10:02:15;;;;;;;42.83;38.28;;;;;;;21.64;100.00;101039.31;5017301;28;20490;-68
2023/09/17 10:04:46;;;;;;;38.70;34.60;;;;;;;21.45;100.00;101037.47;5022782;28;20033;-68
2023/09/17 10:07:14;;;;;;;36.65;32.83;;;;;;;21.28;100.00;101035.47;5019332;28;20048;-68
2023/09/17 10:09:41;;;;;;;37.60;33.63;;;;;;;21.05;100.00;101040.28;5016302;28;20104;-67
2023/09/17 10:12:07;;;;;;;37.47;33.58;;;;;;;20.79;100.00;101048.94;5020864;28;20025;-71
2023/09/17 10:14:37;;;;;;;35.60;32.03;;;;;;;20.51;100.00;101041.59;5022131;28;20033;-71
2023/09/17 10:17:05;;;;;;;35.53;32.03;;;;;;;20.18;100.00;101038.16;5020885;28;20029;-70
2023/09/17 10:19:34;;;;;;;35.58;31.95;;;;;;;19.87;100.00;101035.44;5018737;28;20116;-70
2023/09/17 10:22:03;;;;;;;31.58;28.17;;;;;;;19.67;100.00;101038.16;5021546;28;20033;-70
2023/09/17 10:24:30;;;;;;;28.38;25.50;;;;;;;19.54;100.00;101035.63;5020692;28;20099;-70
2023/09/17 10:26:59;;;;;;;27.27;24.67;;;;;;;19.60;100.00;101032.38;5020226;28;20021;-70
2023/09/17 10:29:26;;;;;;;30.30;27.30;;;;;;;19.70;100.00;101029.81;5019701;28;20080;-70
2023/09/17 10:31:53;;;;;;;30.35;27.25;;;;;;;19.96;100.00;101035.63;5021116;28;20032;-70
2023/09/17 10:34:19;;;;;;;28.67;26.05;;;;;;;20.15;100.00;101038.44;5020969;28;20029;-70
2023/09/17 10:36:47;;;;;;;28.77;25.92;;;;;;;20.16;100.00;101037.44;5019627;28;20072;-70
2023/09/17 10:39:13;;;;;;;26.08;23.40;;;;;;;20.14;100.00;101026.75;5018535;28;20033;-69
2023/09/17 10:41:39;;;;;;;27.27;24.58;;;;;;;20.21;100.00;101020.81;5019325;28;20041;-70
2023/09/17 10:44:07;;;;;;;26.63;23.98;;;;;;;20.52;100.00;101019.81;5019086;28;20360;-68
2023/09/17 10:46:35;;;;;;;24.15;21.75;;;;;;;21.30;100.00;101012.66;5016409;28;20106;-69
2023/09/17 10:49:01;;;;;;;21.70;19.52;;;;;;;21.87;100.00;101015.44;5018473;28;20715;-69
2023/09/17 10:51:27;;;;;;;19.70;17.70;;;;;;;22.49;100.00;101013.06;5017064;28;20037;-71
2023/09/17 10:53:54;;;;;;;18.63;16.83;;;;;;;23.36;100.00;101012.47;5018954;28;20029;-71
2023/09/17 10:56:20;;;;;;;17.20;15.50;;;;;;;23.74;100.00;101010.41;5020113;28;20099;-69
2023/09/17 10:58:49;;;;;;;16.08;14.57;;;;;;;23.45;100.00;101014.25;5015844;28;20531;-69